Time;durP1;ratioP1;P1;durP2;ratioP2;P2;SDS_P1;SDS_P2;PMS_P1;PMS_P2;Temp;Humidity;BMP_temperature;BMP_pressure;BME280_temperature;BME280_humidity;BME280_pressure;Samples;Min_cycle;Max_cycle;Signal;HPM_P1;HPM_P2
2022/10/27 00:02:05;;;;;;;13.20;3.40;;;;;;;;;;4946494;29;20430;-65
2022/10/27 00:04:32;;;;;;;22.67;3.75;;;;;;;;;;4947238;28;20106;-64
2022/10/27 00:06:59;;;;;;;21.42;4.05;;;;;;;;;;4947366;29;20058;-64
2022/10/27 00:09:26;;;;;;;14.68;3.35;;;;;;;;;;4924367;29;20059;-65
2022/10/27 00:11:55;;;;;;;16.77;3.80;;;;;;;;;;4947507;29;20490;-65
2022/10/27 00:14:22;;;;;;;14.80;3.05;;;;;;;;;;4942496;29;20110;-64
2022/10/27 00:16:54;;;;;;;17.88;4.18;;;;;;;;;;4946841;29;20518;-65
2022/10/27 00:19:21;;;;;;;22.23;4.13;;;;;;;;;;4928611;29;20130;-65
2022/10/27 00:21:49;;;;;;;16.83;3.42;;;;;;;;;;4945509;29;20726;-65
2022/10/27 00:24:17;;;;;;;23.92;3.75;;;;;;;;;;4944200;29;20134;-65
2022/10/27 00:26:44;;;;;;;22.40;3.75;;;;;;;;;;4947299;29;20053;-64
2022/10/27 00:29:12;;;;;;;24.75;4.10;;;;;;;;;;4945904;28;20071;-65
2022/10/27 00:31:39;;;;;;;21.33;3.88;;;;;;;;;;4942487;29;20417;-65
2022/10/27 00:34:08;;;;;;;23.50;3.88;;;;;;;;;;4946626;29;20769;-64
2022/10/27 00:36:35;;;;;;;19.85;3.80;;;;;;;;;;4946189;29;20051;-65
2022/10/27 00:39:02;;;;;;;21.27;3.90;;;;;;;;;;4946563;29;20110;-65
2022/10/27 00:41:31;;;;;;;15.50;3.47;;;;;;;;;;4942039;29;20119;-65
2022/10/27 00:43:59;;;;;;;27.00;4.30;;;;;;;;;;4936273;29;20109;-64
2022/10/27 00:46:31;;;;;;;20.52;4.10;;;;;;;;;;4949997;29;20059;-64
2022/10/27 00:48:59;;;;;;;20.73;3.80;;;;;;;;;;4949844;29;20067;-64
2022/10/27 00:51:28;;;;;;;18.15;3.35;;;;;;;;;;4947380;29;20051;-64
2022/10/27 00:53:56;;;;;;;20.73;4.38;;;;;;;;;;4945479;29;20122;-65
2022/10/27 00:56:23;;;;;;;17.70;3.70;;;;;;;;;;4941452;29;20063;-65
2022/10/27 00:58:51;;;;;;;17.95;4.22;;;;;;;;;;4950573;29;20071;-65
2022/10/27 01:01:18;;;;;;;24.83;4.28;;;;;;;;;;4927440;29;20062;-65
2022/10/27 01:03:46;;;;;;;15.82;3.92;;;;;;;;;;4948469;28;20051;-65
2022/10/27 01:06:13;;;;;;;18.30;4.15;;;;;;;;;;4943505;29;20059;-65
2022/10/27 01:08:42;;;;;;;20.02;4.40;;;;;;;;;;4947056;29;20060;-65
2022/10/27 01:11:09;;;;;;;28.33;4.57;;;;;;;;;;4946866;29;20051;-64
2022/10/27 01:13:37;;;;;;;19.25;4.60;;;;;;;;;;4950265;29;20519;-65
2022/10/27 01:16:09;;;;;;;19.67;4.47;;;;;;;;;;4931852;29;20066;-65
2022/10/27 01:18:42;;;;;;;13.43;4.63;;;;;;;;;;4950339;29;20055;-65
2022/10/27 01:21:35;;;;;;;24.52;6.00;;;;;;;;;;4945585;29;20055;-65
2022/10/27 01:24:17;;;;;;;21.35;5.65;;;;;;;;;;4950298;29;20047;-65
2022/10/27 01:26:49;;;;;;;19.35;6.68;;;;;;;;;;4933473;29;20102;-65
2022/10/27 01:29:25;;;;;;;20.10;5.90;;;;;;;;;;4948730;29;20494;-65
2022/10/27 01:31:57;;;;;;;21.95;6.10;;;;;;;;;;4943492;29;20491;-64
2022/10/27 01:34:29;;;;;;;18.52;6.03;;;;;;;;;;4949384;29;20110;-64
2022/10/27 01:37:02;;;;;;;16.85;6.53;;;;;;;;;;4947494;29;20113;-65
2022/10/27 01:39:31;;;;;;;22.67;6.55;;;;;;;;;;4947933;29;20059;-65
2022/10/27 01:42:01;;;;;;;27.08;8.15;;;;;;;;;;4935069;29;20134;-65
2022/10/27 01:44:32;;;;;;;18.85;7.50;;;;;;;;;;4944894;29;20051;-65
2022/10/27 01:47:02;;;;;;;20.25;8.10;;;;;;;;;;4949825;29;20055;-65
2022/10/27 01:49:34;;;;;;;24.05;8.10;;;;;;;;;;4941551;29;20067;-64
2022/10/27 01:52:05;;;;;;;24.08;9.38;;;;;;;;;;4946077;29;20101;-66
2022/10/27 01:54:33;;;;;;;26.15;9.23;;;;;;;;;;4948286;28;20388;-65
2022/10/27 01:57:10;;;;;;;24.50;9.98;;;;;;;;;;4933276;29;20110;-65
2022/10/27 01:59:50;;;;;;;25.42;10.00;;;;;;;;;;4947918;29;20051;-65
2022/10/27 02:02:23;;;;;;;24.67;10.10;;;;;;;;;;4946549;29;20051;-64
2022/10/27 02:04:56;;;;;;;29.40;11.52;;;;;;;;;;4946572;28;20047;-65
2022/10/27 02:07:28;;;;;;;33.40;13.00;;;;;;;;;;4929435;29;20063;-65
2022/10/27 02:09:58;;;;;;;32.53;12.05;;;;;;;;;;4928776;29;20287;-65
2022/10/27 02:12:28;;;;;;;25.63;12.68;;;;;;;;;;4926493;29;20063;-64
2022/10/27 02:14:57;;;;;;;24.98;12.23;;;;;;;;;;4931651;29;20153;-64
2022/10/27 02:17:27;;;;;;;26.73;13.15;;;;;;;;;;4943325;29;20055;-65
2022/10/27 02:19:55;;;;;;;31.35;13.68;;;;;;;;;;4948245;29;20054;-65
2022/10/27 02:22:23;;;;;;;30.73;13.63;;;;;;;;;;4946909;29;20395;-65
2022/10/27 02:24:50;;;;;;;27.33;12.07;;;;;;;;;;4942219;29;20051;-65
2022/10/27 02:27:21;;;;;;;25.77;12.90;;;;;;;;;;4946372;29;20073;-65
2022/10/27 02:29:49;;;;;;;24.38;12.10;;;;;;;;;;4943489;29;20055;-65
2022/10/27 02:32:19;;;;;;;23.13;12.00;;;;;;;;;;4947688;29;20047;-65
2022/10/27 02:34:48;;;;;;;26.00;11.98;;;;;;;;;;4946793;29;20132;-65
2022/10/27 02:37:18;;;;;;;31.30;12.88;;;;;;;;;;4948647;29;20073;-65
2022/10/27 02:39:46;;;;;;;27.17;12.40;;;;;;;;;;4946098;29;20458;-65
2022/10/27 02:42:13;;;;;;;28.88;11.63;;;;;;;;;;4947831;29;20117;-66
2022/10/27 02:44:40;;;;;;;24.75;11.38;;;;;;;;;;4948252;29;20118;-65
2022/10/27 02:47:07;;;;;;;24.08;11.65;;;;;;;;;;4948915;29;20051;-65
2022/10/27 02:49:35;;;;;;;20.05;10.63;;;;;;;;;;4947095;29;20517;-65
2022/10/27 02:52:03;;;;;;;21.17;11.32;;;;;;;;;;4942036;29;20050;-64
2022/10/27 02:54:31;;;;;;;26.73;11.85;;;;;;;;;;4948266;29;20142;-65
2022/10/27 02:56:58;;;;;;;27.88;11.35;;;;;;;;;;4946497;29;20142;-65
2022/10/27 02:59:25;;;;;;;21.75;11.40;;;;;;;;;;4926142;29;20106;-65
2022/10/27 03:01:52;;;;;;;26.95;11.30;;;;;;;;;;4947857;29;20054;-65
2022/10/27 03:04:19;;;;;;;18.13;9.85;;;;;;;;;;4947774;28;20059;-65
2022/10/27 03:06:47;;;;;;;24.73;11.05;;;;;;;;;;4946493;28;20043;-65
2022/10/27 03:09:15;;;;;;;25.63;10.63;;;;;;;;;;4945974;29;20055;-65
2022/10/27 03:11:42;;;;;;;23.20;10.82;;;;;;;;;;4946557;29;20066;-65
2022/10/27 03:14:09;;;;;;;21.77;11.15;;;;;;;;;;4943741;29;20111;-65
2022/10/27 03:16:37;;;;;;;26.42;11.40;;;;;;;;;;4942334;29;20114;-65
2022/10/27 03:19:04;;;;;;;21.83;10.95;;;;;;;;;;4944384;29;20055;-65
2022/10/27 03:21:31;;;;;;;24.80;11.15;;;;;;;;;;4945779;29;20055;-64
2022/10/27 03:23:58;;;;;;;24.90;11.15;;;;;;;;;;4931881;29;20055;-65
2022/10/27 03:26:27;;;;;;;21.15;10.63;;;;;;;;;;4945207;29;20120;-65
2022/10/27 03:28:54;;;;;;;26.48;11.27;;;;;;;;;;4944599;29;20446;-65
2022/10/27 03:31:21;;;;;;;18.25;11.93;;;;;;;;;;4943490;29;20051;-65
2022/10/27 03:33:48;;;;;;;20.65;10.80;;;;;;;;;;4927846;29;20054;-65
2022/10/27 03:36:16;;;;;;;21.77;11.10;;;;;;;;;;4947020;29;20055;-65
2022/10/27 03:38:43;;;;;;;26.63;11.82;;;;;;;;;;4943942;29;20425;-65
2022/10/27 03:41:10;;;;;;;21.70;12.43;;;;;;;;;;4947489;29;20047;-65
2022/10/27 03:43:39;;;;;;;25.70;11.18;;;;;;;;;;4946350;29;20109;-65
2022/10/27 03:46:06;;;;;;;24.45;11.95;;;;;;;;;;4947772;29;20517;-65
2022/10/27 03:48:33;;;;;;;23.92;12.65;;;;;;;;;;4927641;29;20055;-65
2022/10/27 03:51:00;;;;;;;20.55;12.65;;;;;;;;;;4946112;29;20055;-65
2022/10/27 03:53:27;;;;;;;21.33;11.55;;;;;;;;;;4945336;29;20058;-65
2022/10/27 03:55:55;;;;;;;22.40;12.02;;;;;;;;;;4946236;29;20558;-65
2022/10/27 03:58:22;;;;;;;22.73;12.60;;;;;;;;;;4947019;29;20510;-65
2022/10/27 04:00:50;;;;;;;22.80;11.82;;;;;;;;;;4947599;29;20059;-65
2022/10/27 04:03:18;;;;;;;24.27;12.10;;;;;;;;;;4940278;28;20061;-65
2022/10/27 04:05:45;;;;;;;26.50;12.30;;;;;;;;;;4929355;29;20110;-65
2022/10/27 04:08:12;;;;;;;26.77;13.10;;;;;;;;;;4946759;29;20050;-65
2022/10/27 04:10:39;;;;;;;26.52;12.55;;;;;;;;;;4942945;29;20050;-65
2022/10/27 04:13:06;;;;;;;22.48;12.60;;;;;;;;;;4946539;29;20059;-65
2022/10/27 04:15:34;;;;;;;24.15;12.82;;;;;;;;;;4945471;29;20510;-65
2022/10/27 04:18:02;;;;;;;24.25;13.77;;;;;;;;;;4947668;28;20367;-65
2022/10/27 04:20:30;;;;;;;25.17;12.52;;;;;;;;;;4932065;29;20062;-65
2022/10/27 04:22:57;;;;;;;24.60;12.63;;;;;;;;;;4947013;29;20055;-65
2022/10/27 04:25:24;;;;;;;26.35;12.75;;;;;;;;;;4950046;29;20055;-65
2022/10/27 04:27:52;;;;;;;21.27;12.25;;;;;;;;;;4949694;29;20047;-65
2022/10/27 04:30:19;;;;;;;32.55;13.48;;;;;;;;;;4945590;29;20188;-65
2022/10/27 04:32:52;;;;;;;24.55;13.30;;;;;;;;;;4946188;29;20058;-65
2022/10/27 04:35:20;;;;;;;28.17;14.27;;;;;;;;;;4930532;29;20051;-65
2022/10/27 04:37:48;;;;;;;33.00;12.57;;;;;;;;;;4949115;29;20051;-65
2022/10/27 04:40:15;;;;;;;25.50;13.07;;;;;;;;;;4947129;29;20421;-65
2022/10/27 04:42:44;;;;;;;30.00;12.65;;;;;;;;;;4948910;29;20106;-65
2022/10/27 04:45:12;;;;;;;28.83;13.05;;;;;;;;;;4927617;29;20086;-65
2022/10/27 04:47:39;;;;;;;26.70;13.00;;;;;;;;;;4945607;29;20075;-65
2022/10/27 04:50:06;;;;;;;28.55;12.60;;;;;;;;;;4933913;29;20059;-65
2022/10/27 04:52:35;;;;;;;29.50;14.18;;;;;;;;;;4950824;29;20063;-65
2022/10/27 04:55:02;;;;;;;22.90;12.55;;;;;;;;;;4950468;29;20111;-65
2022/10/27 04:57:29;;;;;;;23.50;12.15;;;;;;;;;;4949972;29;20055;-65
2022/10/27 04:59:57;;;;;;;23.92;12.02;;;;;;;;;;4947689;29;20043;-65
2022/10/27 05:02:24;;;;;;;26.02;11.60;;;;;;;;;;4944035;29;20192;-65
2022/10/27 05:04:51;;;;;;;23.15;11.70;;;;;;;;;;4946112;28;20043;-65
2022/10/27 05:07:18;;;;;;;20.85;10.30;;;;;;;;;;4939689;29;20095;-65
2022/10/27 05:09:47;;;;;;;21.83;10.25;;;;;;;;;;4945211;29;20055;-64
2022/10/27 05:12:14;;;;;;;25.73;10.57;;;;;;;;;;4947247;29;20074;-65
2022/10/27 05:14:41;;;;;;;19.45;10.43;;;;;;;;;;4931750;29;20102;-65
2022/10/27 05:17:08;;;;;;;23.05;9.93;;;;;;;;;;4947243;29;20066;-65
2022/10/27 05:19:36;;;;;;;24.88;9.77;;;;;;;;;;4945644;29;20058;-65
2022/10/27 05:22:03;;;;;;;23.13;9.73;;;;;;;;;;4946137;29;20723;-65
2022/10/27 05:24:30;;;;;;;19.05;9.30;;;;;;;;;;4943382;29;20052;-65
2022/10/27 05:26:59;;;;;;;17.52;8.73;;;;;;;;;;4947895;29;20398;-65
2022/10/27 05:29:26;;;;;;;18.65;9.40;;;;;;;;;;4939772;29;20064;-65
2022/10/27 05:31:54;;;;;;;14.57;8.50;;;;;;;;;;4942060;29;20425;-65
2022/10/27 05:34:21;;;;;;;22.60;9.02;;;;;;;;;;4948385;29;20577;-65
2022/10/27 05:36:50;;;;;;;17.27;9.18;;;;;;;;;;4945085;29;20129;-66
2022/10/27 05:39:17;;;;;;;18.15;8.27;;;;;;;;;;4947514;29;20542;-65
2022/10/27 05:41:44;;;;;;;15.88;8.60;;;;;;;;;;4947005;29;20056;-65
2022/10/27 05:44:12;;;;;;;18.50;9.30;;;;;;;;;;4949497;29;20107;-65
2022/10/27 05:46:40;;;;;;;18.15;8.32;;;;;;;;;;4947114;29;20059;-65
2022/10/27 05:49:07;;;;;;;18.05;8.13;;;;;;;;;;4948337;29;20473;-65
2022/10/27 05:51:34;;;;;;;26.90;8.30;;;;;;;;;;4946833;29;20502;-65
2022/10/27 05:54:01;;;;;;;20.45;8.80;;;;;;;;;;4948278;29;20051;-65
2022/10/27 05:56:29;;;;;;;15.52;7.93;;;;;;;;;;4929140;29;20047;-65
2022/10/27 05:58:56;;;;;;;16.35;7.82;;;;;;;;;;4947358;29;20538;-65
2022/10/27 06:01:24;;;;;;;18.13;8.15;;;;;;;;;;4946464;29;20062;-65
2022/10/27 06:03:51;;;;;;;19.83;7.88;;;;;;;;;;4944403;28;20692;-65
2022/10/27 06:06:19;;;;;;;22.77;8.85;;;;;;;;;;4942287;29;20047;-65
2022/10/27 06:08:46;;;;;;;16.58;8.20;;;;;;;;;;4946671;29;20089;-65
2022/10/27 06:11:13;;;;;;;20.15;8.45;;;;;;;;;;4941733;29;20048;-65
2022/10/27 06:13:40;;;;;;;16.73;7.93;;;;;;;;;;4947878;29;20047;-66
2022/10/27 06:16:08;;;;;;;20.40;7.70;;;;;;;;;;4946658;29;20141;-65
2022/10/27 06:18:36;;;;;;;19.25;8.32;;;;;;;;;;4941863;29;20298;-65
2022/10/27 06:21:04;;;;;;;20.48;7.88;;;;;;;;;;4939386;29;20470;-66
2022/10/27 06:23:31;;;;;;;14.68;7.50;;;;;;;;;;4945949;29;20055;-66
2022/10/27 06:25:58;;;;;;;19.67;8.63;;;;;;;;;;4940675;29;20055;-67
2022/10/27 06:28:25;;;;;;;14.85;7.90;;;;;;;;;;4939121;29;20055;-67
2022/10/27 06:30:53;;;;;;;17.67;7.43;;;;;;;;;;4941842;28;20549;-67
2022/10/27 06:33:21;;;;;;;22.90;8.20;;;;;;;;;;4942365;29;20058;-67
2022/10/27 06:35:49;;;;;;;16.10;7.60;;;;;;;;;;4930665;29;20051;-66
2022/10/27 06:38:17;;;;;;;16.63;7.93;;;;;;;;;;4923770;29;20050;-66
2022/10/27 06:40:44;;;;;;;14.43;7.05;;;;;;;;;;4940647;28;20047;-67
2022/10/27 06:43:12;;;;;;;17.48;7.45;;;;;;;;;;4944943;29;20832;-66
2022/10/27 06:45:39;;;;;;;20.10;7.60;;;;;;;;;;4943649;29;20106;-66
2022/10/27 06:48:07;;;;;;;21.80;7.82;;;;;;;;;;4943232;29;20055;-67
2022/10/27 06:50:35;;;;;;;19.98;7.68;;;;;;;;;;4942611;29;20500;-67
2022/10/27 06:53:04;;;;;;;13.77;6.70;;;;;;;;;;4940531;29;20047;-67
2022/10/27 06:55:31;;;;;;;18.52;6.80;;;;;;;;;;4944426;29;20059;-67
2022/10/27 06:57:58;;;;;;;15.30;7.60;;;;;;;;;;4946655;29;20406;-67
2022/10/27 07:00:26;;;;;;;15.13;6.95;;;;;;;;;;4946327;29;20055;-67
2022/10/27 07:02:53;;;;;;;15.10;7.10;;;;;;;;;;4943550;28;20077;-67
2022/10/27 07:05:21;;;;;;;19.45;6.93;;;;;;;;;;4946423;29;20486;-67
2022/10/27 07:07:48;;;;;;;12.27;6.60;;;;;;;;;;4928004;29;20051;-67
2022/10/27 07:10:18;;;;;;;17.90;7.57;;;;;;;;;;4926900;29;20511;-67
2022/10/27 07:12:52;;;;;;;18.33;7.47;;;;;;;;;;4947733;29;20054;-67
2022/10/27 07:15:19;;;;;;;15.60;6.38;;;;;;;;;;4938788;29;20073;-67
2022/10/27 07:17:46;;;;;;;13.25;6.63;;;;;;;;;;4945281;29;20051;-67
2022/10/27 07:20:14;;;;;;;17.83;7.20;;;;;;;;;;4942652;29;20071;-67
2022/10/27 07:22:41;;;;;;;14.13;6.80;;;;;;;;;;4926879;29;20059;-67
2022/10/27 07:25:09;;;;;;;21.40;7.15;;;;;;;;;;4926216;29;20055;-67
2022/10/27 07:27:37;;;;;;;17.17;6.95;;;;;;;;;;4943587;29;20074;-67
2022/10/27 07:30:05;;;;;;;14.20;6.90;;;;;;;;;;4925607;29;20498;-66
2022/10/27 07:32:32;;;;;;;16.88;6.65;;;;;;;;;;4944446;29;20450;-67
2022/10/27 07:34:59;;;;;;;18.92;6.78;;;;;;;;;;4945733;29;20090;-67
2022/10/27 07:37:27;;;;;;;14.23;6.60;;;;;;;;;;4943818;29;20058;-67
2022/10/27 07:39:54;;;;;;;15.85;7.03;;;;;;;;;;4941635;28;20062;-67
2022/10/27 07:42:21;;;;;;;14.48;7.00;;;;;;;;;;4945671;29;20498;-67
2022/10/27 07:44:50;;;;;;;14.68;6.95;;;;;;;;;;4945621;29;20059;-67
2022/10/27 07:47:17;;;;;;;11.07;6.78;;;;;;;;;;4944485;29;20051;-67
2022/10/27 07:49:44;;;;;;;15.98;7.18;;;;;;;;;;4946567;29;20047;-66
2022/10/27 07:52:11;;;;;;;19.20;7.30;;;;;;;;;;4941325;29;20047;-67
2022/10/27 07:54:38;;;;;;;14.32;6.75;;;;;;;;;;4928239;29;20532;-67
2022/10/27 07:57:06;;;;;;;14.55;6.70;;;;;;;;;;4924684;29;20065;-66
2022/10/27 07:59:33;;;;;;;17.40;6.50;;;;;;;;;;4945879;29;20054;-67
2022/10/27 08:02:01;;;;;;;13.10;6.50;;;;;;;;;;4944827;29;20047;-67
2022/10/27 08:04:29;;;;;;;17.02;6.20;;;;;;;;;;4944782;28;20047;-67
2022/10/27 08:06:56;;;;;;;10.38;5.90;;;;;;;;;;4946212;29;20078;-67
2022/10/27 08:09:23;;;;;;;12.63;5.85;;;;;;;;;;4944538;29;20252;-66
2022/10/27 08:11:50;;;;;;;17.92;6.45;;;;;;;;;;4946887;28;20055;-66
2022/10/27 08:14:18;;;;;;;9.07;5.88;;;;;;;;;;4942173;29;20070;-66
2022/10/27 08:16:45;;;;;;;19.02;6.35;;;;;;;;;;4944645;29;20062;-67
2022/10/27 08:19:15;;;;;;;15.40;6.00;;;;;;;;;;4941741;28;20075;-67
2022/10/27 08:21:43;;;;;;;10.23;6.07;;;;;;;;;;4946016;29;20058;-67
2022/10/27 08:24:10;;;;;;;11.70;5.63;;;;;;;;;;4944816;29;20119;-67
2022/10/27 08:26:37;;;;;;;12.68;5.60;;;;;;;;;;4940257;29;20759;-67
2022/10/27 08:29:04;;;;;;;14.77;5.78;;;;;;;;;;4938388;29;20054;-67
2022/10/27 08:31:32;;;;;;;8.60;5.32;;;;;;;;;;4943238;29;20645;-67
2022/10/27 08:33:59;;;;;;;14.65;4.88;;;;;;;;;;4944377;29;20055;-67
2022/10/27 08:36:28;;;;;;;12.85;4.68;;;;;;;;;;4945803;29;20050;-67
2022/10/27 08:38:55;;;;;;;9.60;4.80;;;;;;;;;;4940045;29;20051;-67
2022/10/27 08:41:25;;;;;;;11.43;4.47;;;;;;;;;;4945591;29;20059;-67
2022/10/27 08:44:04;;;;;;;8.10;3.80;;;;;;;;;;4944325;29;20521;-67
2022/10/27 08:46:35;;;;;;;7.60;3.45;;;;;;;;;;4941465;29;20056;-67
2022/10/27 08:49:04;;;;;;;11.90;3.33;;;;;;;;;;4942908;29;20106;-67
2022/10/27 08:51:33;;;;;;;8.40;3.47;;;;;;;;;;4944597;29;20058;-67
2022/10/27 08:54:01;;;;;;;7.97;3.22;;;;;;;;;;4947176;29;20058;-67
2022/10/27 08:56:33;;;;;;;11.65;3.72;;;;;;;;;;4941071;29;20070;-67
2022/10/27 08:59:02;;;;;;;6.88;3.17;;;;;;;;;;4929313;29;20055;-67
2022/10/27 09:01:34;;;;;;;11.02;3.42;;;;;;;;;;4942628;29;20568;-67
2022/10/27 09:04:08;;;;;;;10.52;2.65;;;;;;;;;;4939218;28;20435;-67
2022/10/27 09:06:39;;;;;;;9.40;3.00;;;;;;;;;;4928607;29;20043;-67
2022/10/27 09:09:12;;;;;;;8.25;3.20;;;;;;;;;;4946563;29;20544;-67
2022/10/27 09:11:40;;;;;;;11.65;2.80;;;;;;;;;;4945480;29;20055;-67
2022/10/27 09:14:18;;;;;;;8.77;3.38;;;;;;;;;;4950248;29;20055;-67
2022/10/27 09:16:47;;;;;;;7.60;2.90;;;;;;;;;;4949106;29;20533;-67
2022/10/27 09:19:19;;;;;;;6.30;3.13;;;;;;;;;;4949210;29;20521;-67
2022/10/27 09:21:47;;;;;;;11.50;3.80;;;;;;;;;;4929509;29;20549;-67
2022/10/27 09:24:17;;;;;;;7.10;3.20;;;;;;;;;;4943820;29;20704;-67
2022/10/27 09:26:46;;;;;;;7.68;2.80;;;;;;;;;;4942664;29;20051;-67
2022/10/27 09:29:17;;;;;;;6.30;2.70;;;;;;;;;;4941135;29;20101;-67
2022/10/27 09:31:48;;;;;;;10.18;2.85;;;;;;;;;;4948274;29;20082;-67
2022/10/27 09:34:18;;;;;;;11.82;2.60;;;;;;;;;;4928335;29;20054;-67
2022/10/27 09:36:46;;;;;;;8.90;2.70;;;;;;;;;;4948740;29;20047;-67
2022/10/27 09:39:14;;;;;;;8.35;2.78;;;;;;;;;;4945558;29;20058;-67
2022/10/27 09:41:41;;;;;;;8.13;3.03;;;;;;;;;;4946728;29;20051;-67
2022/10/27 09:44:17;;;;;;;7.90;2.97;;;;;;;;;;4940413;29;20051;-67
2022/10/27 09:46:45;;;;;;;8.48;2.50;;;;;;;;;;4944210;29;20051;-67
2022/10/27 09:49:13;;;;;;;7.05;2.88;;;;;;;;;;4948759;29;20055;-67
2022/10/27 09:51:42;;;;;;;11.82;2.83;;;;;;;;;;4948901;29;20047;-67
2022/10/27 09:54:28;;;;;;;10.00;3.17;;;;;;;;;;4949115;29;20542;-67
2022/10/27 09:56:56;;;;;;;9.50;2.85;;;;;;;;;;4948325;29;20078;-67
2022/10/27 09:59:23;;;;;;;9.93;3.42;;;;;;;;;;4947261;29;20055;-67
2022/10/27 10:01:56;;;;;;;7.00;3.20;;;;;;;;;;4932894;29;20058;-67
2022/10/27 10:04:26;;;;;;;17.00;3.38;;;;;;;;;;4947800;28;20103;-67
2022/10/27 10:06:54;;;;;;;9.50;3.22;;;;;;;;;;4931484;29;20047;-67
2022/10/27 10:09:27;;;;;;;12.52;3.85;;;;;;;;;;4924735;29;20125;-67
2022/10/27 10:12:13;;;;;;;6.88;2.83;;;;;;;;;;4941918;29;20052;-67
2022/10/27 10:14:40;;;;;;;7.30;3.38;;;;;;;;;;4947013;29;20051;-67
2022/10/27 10:17:18;;;;;;;7.93;3.45;;;;;;;;;;4946508;28;20066;-67
2022/10/27 10:19:47;;;;;;;9.45;3.55;;;;;;;;;;4945883;29;20062;-67
2022/10/27 10:22:20;;;;;;;5.85;2.88;;;;;;;;;;4943686;29;20098;-67
2022/10/27 10:24:47;;;;;;;;;;;;;;;;;;4945385;29;20066;-67
2022/10/27 10:27:24;;;;;;;12.60;3.28;;;;;;;;;;4947404;29;19957;-67
2022/10/27 10:29:51;;;;;;;9.00;3.38;;;;;;;;;;4942563;29;20054;-67
2022/10/27 10:32:20;;;;;;;9.15;3.17;;;;;;;;;;4943958;29;20047;-67
2022/10/27 10:34:47;;;;;;;11.88;3.20;;;;;;;;;;4943899;29;20470;-67
2022/10/27 10:37:29;;;;;;;9.50;3.30;;;;;;;;;;4944196;29;20114;-67
2022/10/27 10:39:56;;;;;;;8.32;3.08;;;;;;;;;;4940686;29;20058;-67
2022/10/27 10:42:25;;;;;;;8.32;3.05;;;;;;;;;;4942244;29;20059;-67
2022/10/27 10:45:09;;;;;;;9.45;3.30;;;;;;;;;;4946066;29;20065;-67
2022/10/27 10:47:38;;;;;;;8.65;3.85;;;;;;;;;;4942987;29;20051;-67
2022/10/27 10:50:12;;;;;;;6.93;2.97;;;;;;;;;;4946607;29;20059;-67
2022/10/27 10:52:39;;;;;;;11.13;2.80;;;;;;;;;;4943802;29;20127;-67
2022/10/27 10:55:07;;;;;;;10.73;2.63;;;;;;;;;;4944554;29;20051;-68
2022/10/27 10:57:37;;;;;;;8.05;2.53;;;;;;;;;;4947321;29;20051;-68
2022/10/27 11:00:05;;;;;;;9.68;2.92;;;;;;;;;;4947526;29;20051;-67
2022/10/27 11:02:33;;;;;;;8.23;2.50;;;;;;;;;;4944542;29;20055;-67
2022/10/27 11:05:11;;;;;;;7.28;2.65;;;;;;;;;;4940811;29;20850;-67
2022/10/27 11:07:39;;;;;;;7.18;3.22;;;;;;;;;;4945135;29;20375;-67
2022/10/27 11:10:10;;;;;;;8.85;2.95;;;;;;;;;;4940744;29;20058;-67
2022/10/27 11:12:40;;;;;;;14.43;2.92;;;;;;;;;;4945417;29;20054;-67
2022/10/27 11:15:14;;;;;;;8.00;2.40;;;;;;;;;;4942062;29;20055;-67
2022/10/27 11:17:44;;;;;;;7.35;2.40;;;;;;;;;;4947164;29;20059;-67
2022/10/27 11:20:14;;;;;;;7.53;2.60;;;;;;;;;;4941954;29;20058;-67
2022/10/27 11:22:42;;;;;;;5.35;2.10;;;;;;;;;;4926540;29;20064;-68
2022/10/27 11:25:16;;;;;;;6.18;2.17;;;;;;;;;;4945143;29;20383;-67
2022/10/27 11:27:54;;;;;;;11.77;2.60;;;;;;;;;;4928952;29;20047;-67
2022/10/27 11:30:22;;;;;;;14.52;2.72;;;;;;;;;;4942824;29;20047;-68
2022/10/27 11:32:52;;;;;;;12.20;2.47;;;;;;;;;;4946520;29;20059;-68
2022/10/27 11:35:21;;;;;;;6.30;2.20;;;;;;;;;;4943999;29;20058;-67
2022/10/27 11:37:51;;;;;;;7.60;2.10;;;;;;;;;;4940689;29;20067;-67
2022/10/27 11:40:22;;;;;;;8.52;2.15;;;;;;;;;;4937271;29;20617;-67
2022/10/27 11:42:55;;;;;;;5.60;2.15;;;;;;;;;;4939173;29;20051;-68
2022/10/27 11:45:24;;;;;;;8.68;2.38;;;;;;;;;;4943228;29;20755;-68
2022/10/27 11:47:54;;;;;;;6.72;2.17;;;;;;;;;;4940194;29;20094;-67
2022/10/27 11:50:25;;;;;;;5.65;2.38;;;;;;;;;;4945912;29;20614;-67
2022/10/27 11:52:53;;;;;;;8.50;2.38;;;;;;;;;;4947320;29;20059;-67
2022/10/27 11:55:22;;;;;;;7.38;2.47;;;;;;;;;;4943962;29;20051;-67
2022/10/27 11:57:53;;;;;;;5.97;2.20;;;;;;;;;;4942179;29;20062;-67
2022/10/27 12:00:23;;;;;;;15.07;2.30;;;;;;;;;;4941330;29;20050;-67
2022/10/27 12:02:58;;;;;;;7.18;2.05;;;;;;;;;;4941432;28;20078;-68
2022/10/27 12:05:28;;;;;;;7.35;1.92;;;;;;;;;;4945925;29;20051;-68
2022/10/27 12:07:58;;;;;;;7.57;2.13;;;;;;;;;;4946330;29;20047;-67
2022/10/27 12:10:31;;;;;;;8.27;1.70;;;;;;;;;;4941962;29;20083;-67
2022/10/27 12:13:02;;;;;;;7.00;2.05;;;;;;;;;;4944170;29;20090;-67
2022/10/27 12:15:34;;;;;;;6.05;1.90;;;;;;;;;;4943627;29;20138;-67
2022/10/27 12:18:02;;;;;;;10.93;1.77;;;;;;;;;;4927511;29;20054;-67
2022/10/27 12:20:34;;;;;;;4.65;1.90;;;;;;;;;;4938024;29;20122;-67
2022/10/27 12:23:03;;;;;;;3.78;1.70;;;;;;;;;;4930206;29;20434;-68
2022/10/27 12:25:33;;;;;;;10.05;1.90;;;;;;;;;;4944069;29;20043;-67
2022/10/27 12:28:02;;;;;;;6.80;1.90;;;;;;;;;;4947320;29;20046;-67
2022/10/27 12:30:29;;;;;;;5.38;1.73;;;;;;;;;;4939205;29;20044;-67
2022/10/27 12:33:00;;;;;;;7.78;1.80;;;;;;;;;;4945081;29;20070;-67
2022/10/27 12:35:31;;;;;;;6.68;2.22;;;;;;;;;;4941805;29;20059;-68
2022/10/27 12:38:03;;;;;;;15.10;2.45;;;;;;;;;;4940398;29;20054;-67
2022/10/27 12:40:33;;;;;;;4.68;1.73;;;;;;;;;;4942983;29;20059;-67
2022/10/27 12:43:05;;;;;;;3.45;1.52;;;;;;;;;;4951358;29;20098;-68
2022/10/27 12:45:40;;;;;;;4.70;1.83;;;;;;;;;;4949459;29;20055;-67
2022/10/27 12:48:15;;;;;;;10.82;1.83;;;;;;;;;;4949940;29;20047;-68
2022/10/27 12:50:44;;;;;;;7.43;1.80;;;;;;;;;;4931692;29;20074;-67
2022/10/27 12:53:19;;;;;;;4.07;1.67;;;;;;;;;;4950018;29;20158;-68
2022/10/27 12:55:49;;;;;;;5.75;1.85;;;;;;;;;;4950248;29;21230;-67
2022/10/27 12:58:21;;;;;;;8.63;1.70;;;;;;;;;;4947597;29;20097;-67
2022/10/27 13:00:52;;;;;;;5.45;1.80;;;;;;;;;;4945071;29;20051;-68
2022/10/27 13:03:40;;;;;;;5.50;1.70;;;;;;;;;;4947567;28;20123;-68
2022/10/27 13:06:15;;;;;;;4.80;1.50;;;;;;;;;;4941819;29;20847;-68
2022/10/27 13:08:57;;;;;;;4.55;1.65;;;;;;;;;;4947333;29;20612;-67
2022/10/27 13:11:39;;;;;;;4.22;1.73;;;;;;;;;;4941249;29;20070;-67
2022/10/27 13:14:24;;;;;;;5.85;1.70;;;;;;;;;;4948906;29;20055;-67
2022/10/27 13:16:57;;;;;;;6.03;1.60;;;;;;;;;;4944651;29;20058;-67
2022/10/27 13:19:32;;;;;;;4.28;1.70;;;;;;;;;;4947786;29;20208;-67
2022/10/27 13:22:07;;;;;;;12.93;1.73;;;;;;;;;;4947927;29;20062;-68
2022/10/27 13:24:37;;;;;;;6.28;1.63;;;;;;;;;;4945912;29;20051;-67
2022/10/27 13:27:06;;;;;;;5.18;1.80;;;;;;;;;;4948353;29;20051;-67
2022/10/27 13:29:40;;;;;;;7.40;1.77;;;;;;;;;;4946540;29;20058;-67
2022/10/27 13:32:16;;;;;;;6.25;1.77;;;;;;;;;;4946782;29;20059;-67
2022/10/27 13:35:04;;;;;;;6.70;1.85;;;;;;;;;;4948370;29;20118;-67
2022/10/27 13:37:39;;;;;;;5.82;1.60;;;;;;;;;;4933250;29;20443;-67
2022/10/27 13:40:34;;;;;;;9.52;2.17;;;;;;;;;;4946152;29;20499;-67
2022/10/27 13:43:16;;;;;;;10.82;2.08;;;;;;;;;;4946608;29;20075;-67
2022/10/27 13:45:48;;;;;;;5.15;1.83;;;;;;;;;;4929695;29;20063;-67
2022/10/27 13:48:33;;;;;;;7.20;2.10;;;;;;;;;;4947006;29;20047;-67
2022/10/27 13:51:20;;;;;;;7.18;2.20;;;;;;;;;;4949230;28;20545;-67
2022/10/27 13:53:48;;;;;;;5.63;2.45;;;;;;;;;;4944507;29;20059;-67
2022/10/27 13:56:34;;;;;;;7.80;2.10;;;;;;;;;;4948119;29;20109;-67
2022/10/27 13:59:05;;;;;;;8.43;2.05;;;;;;;;;;4935495;29;20498;-67
2022/10/27 14:01:34;;;;;;;8.35;2.17;;;;;;;;;;4947693;29;20055;-66
2022/10/27 14:04:16;;;;;;;6.53;2.28;;;;;;;;;;4946962;28;20047;-67
2022/10/27 14:06:44;;;;;;;9.60;2.42;;;;;;;;;;4942038;29;20117;-67
2022/10/27 14:09:23;;;;;;;7.63;2.42;;;;;;;;;;4945529;29;20451;-67
2022/10/27 14:11:51;;;;;;;9.27;2.70;;;;;;;;;;4947076;29;20148;-67
2022/10/27 14:14:22;;;;;;;8.60;2.35;;;;;;;;;;4940333;29;20503;-67
2022/10/27 14:16:49;;;;;;;5.68;2.17;;;;;;;;;;4949054;29;20058;-67
2022/10/27 14:19:19;;;;;;;5.40;2.05;;;;;;;;;;4946779;29;20047;-67
2022/10/27 14:21:48;;;;;;;5.88;2.40;;;;;;;;;;4947295;29;20051;-67
2022/10/27 14:24:18;;;;;;;8.48;1.90;;;;;;;;;;4947957;29;20110;-67
2022/10/27 14:26:46;;;;;;;6.13;2.25;;;;;;;;;;4947070;29;20050;-67
2022/10/27 14:29:21;;;;;;;11.15;2.38;;;;;;;;;;4947059;29;20063;-67
2022/10/27 14:31:48;;;;;;;5.00;1.88;;;;;;;;;;4930126;29;20070;-67
2022/10/27 14:34:16;;;;;;;8.18;2.10;;;;;;;;;;4946141;29;20410;-67
2022/10/27 14:36:44;;;;;;;9.07;1.80;;;;;;;;;;4943509;29;20141;-67
2022/10/27 14:39:25;;;;;;;7.68;2.05;;;;;;;;;;4946052;29;20052;-67
2022/10/27 14:41:54;;;;;;;4.68;1.73;;;;;;;;;;4944487;29;20109;-67
2022/10/27 14:44:24;;;;;;;11.73;2.58;;;;;;;;;;4946051;29;20055;-67
2022/10/27 14:46:51;;;;;;;5.10;2.10;;;;;;;;;;4945759;29;20082;-67